Time;durP1;ratioP1;P1;durP2;ratioP2;P2;SDS_P1;SDS_P2;PMS_P1;PMS_P2;Temp;Humidity;BMP_temperature;BMP_pressure;BME280_temperature;BME280_humidity;BME280_pressure;Samples;Min_cycle;Max_cycle;Signal;HPM_P1;HPM_P2
2022/06/20 00:00:28;;;;;;;;;;;;;;;;;;4943577;28;19926;-82
2022/06/20 00:02:54;;;;;;;;;;;;;;;;;;4943646;28;19914;-81
2022/06/20 00:05:19;;;;;;;;;;;;;;;;;;4939922;29;19989;-83
2022/06/20 00:07:45;;;;;;;;;;;;;;;;;;4973658;28;19922;-81
2022/06/20 00:10:10;;;;;;;;;;;;;;;;;;4976636;28;20009;-81
2022/06/20 00:12:35;;;;;;;;;;;;;;;;;;4939971;29;20085;-83
2022/06/20 00:15:01;;;;;;;;;;;;;;;;;;4940458;29;19915;-82
2022/06/20 00:17:26;;;;;;;;;;;;;;;;;;4924252;29;19922;-84
2022/06/20 00:19:52;;;;;;;;;;;;;;;;;;4960346;28;20393;-83
2022/06/20 00:22:17;;;;;;;;;;;;;;;;;;4945361;28;20006;-83
2022/06/20 00:24:42;;;;;;;;;;;;;;;;;;4957843;28;19914;-84
2022/06/20 00:27:08;;;;;;;;;;;;;;;;;;4940954;28;19925;-81
2022/06/20 00:29:33;;;;;;;;;;;;;;;;;;4939727;28;19919;-82
2022/06/20 00:31:59;;;;;;;;;;;;;;;;;;4958455;28;19914;-80
2022/06/20 00:34:24;;;;;;;;;;;;;;;;;;4975954;28;20407;-79
2022/06/20 00:36:50;;;;;;;;;;;;;;;;;;4958707;28;19921;-82
2022/06/20 00:39:15;;;;;;;;;;;;;;;;;;4975874;28;20010;-82
2022/06/20 00:41:40;;;;;;;;;;;;;;;;;;4975830;28;20439;-81
2022/06/20 00:44:06;;;;;;;;;;;;;;;;;;4958625;28;19920;-82
2022/06/20 00:46:51;;;;;;;;;;;;;;;;;;4969806;28;19965;-82
2022/06/20 00:49:35;;;;;;;;;;;;;;;;;;4961514;28;20302;-83
2022/06/20 00:52:19;;;;;;;;;;;;;;;;;;4960260;28;20380;-81
2022/06/20 00:55:03;;;;;;;;;;;;;;;;;;4976168;28;20432;-82
2022/06/20 00:57:47;;;;;;;;;;;;;;;;;;4976020;28;19925;-81
2022/06/20 01:00:31;;;;;;;;;;;;;;;;;;4976072;28;19920;-81
2022/06/20 01:03:15;;;;;;;;;;;;;;;;;;4975990;28;19921;-81
2022/06/20 01:05:59;;;;;;;;;;;;;;;;;;4975556;28;20292;-82
2022/06/20 01:08:43;;;;;;;;;;;;;;;;;;4960869;28;20006;-82
2022/06/20 01:11:27;;;;;;;;;;;;;;;;;;4975738;28;20403;-82
2022/06/20 01:14:11;;;;;;;;;;;;;;;;;;4975934;28;20456;-85
2022/06/20 01:16:54;;;;;;;;;;;;;;;;;;4961811;28;19921;-88
2022/06/20 01:19:39;;;;;;;;;;;;;;;;;;4972407;28;19925;-85
2022/06/20 01:22:23;;;;;;;;;;;;;;;;;;4971368;28;20004;-85
2022/06/20 01:25:07;;;;;;;;;;;;;;;;;;4943745;28;19925;-85
2022/06/20 01:27:51;;;;;;;;;;;;;;;;;;4975806;28;19973;-85
2022/06/20 01:30:35;;;;;;;;;;;;;;;;;;4961090;28;19985;-85
2022/06/20 01:33:19;;;;;;;;;;;;;;;;;;4931801;28;19985;-86
2022/06/20 01:39:06;;;;;;;;;;;;;;;;;;4961139;28;19936;-82
2022/06/20 01:44:53;;;;;;;;;;;;;;;;;;4956541;29;20397;-82
2022/06/20 01:47:37;;;;;;;;;;;;;;;;;;4942728;29;19926;-80
2022/06/20 01:50:21;;;;;;;;;;;;;;;;;;4943507;28;19962;-82
2022/06/20 01:53:05;;;;;;;;;;;;;;;;;;4955354;28;19965;-81
2022/06/20 01:55:49;;;;;;;;;;;;;;;;;;4978217;28;19921;-82
2022/06/20 01:58:33;;;;;;;;;;;;;;;;;;4991105;28;19921;-82
2022/06/20 02:01:17;;;;;;;;;;;;;;;;;;4980353;28;19941;-81
2022/06/20 02:04:01;;;;;;;;;;;;;;;;;;4979276;28;20397;-83
2022/06/20 02:06:47;;;;;;;;;;;;;;;;;;4977628;28;19929;-81
2022/06/20 02:09:31;;;;;;;;;;;;;;;;;;4980250;28;19969;-81
2022/06/20 02:12:15;;;;;;;;;;;;;;;;;;4984531;28;19960;-81
2022/06/20 02:14:59;;;;;;;;;;;;;;;;;;4969878;28;19926;-81
2022/06/20 02:17:43;;;;;;;;;;;;;;;;;;4980571;28;19937;-84
2022/06/20 02:20:27;;;;;;;;;;;;;;;;;;4982646;28;19969;-82
2022/06/20 02:23:11;;;;;;;;;;;;;;;;;;4984350;28;20289;-83
2022/06/20 02:25:55;;;;;;;;;;;;;;;;;;4955416;28;19924;-81
2022/06/20 02:28:39;;;;;;;;;;;;;;;;;;4981997;28;19921;-82
2022/06/20 02:31:23;;;;;;;;;;;;;;;;;;4988684;28;19980;-80
2022/06/20 02:34:07;;;;;;;;;;;;;;;;;;4967716;28;19921;-82
2022/06/20 02:36:51;;;;;;;;;;;;;;;;;;4962991;28;19921;-82
2022/06/20 02:39:36;;;;;;;;;;;;;;;;;;4976339;28;19921;-83
2022/06/20 02:42:19;;;;;;;;;;;;;;;;;;4959714;28;19985;-82
2022/06/20 02:45:03;;;;;;;;;;;;;;;;;;4956850;29;19921;-81
2022/06/20 02:47:47;;;;;;;;;;;;;;;;;;4965089;28;20288;-81
2022/06/20 02:50:31;;;;;;;;;;;;;;;;;;4974614;28;19921;-82
2022/06/20 02:53:15;;;;;;;;;;;;;;;;;;4974076;28;20384;-82
2022/06/20 02:55:59;;;;;;;;;;;;;;;;;;4974085;28;19921;-82
2022/06/20 02:58:43;;;;;;;;;;;;;;;;;;4972436;28;19921;-80
2022/06/20 03:01:27;;;;;;;;;;;;;;;;;;4959432;28;19922;-80
2022/06/20 03:04:12;;;;;;;;;;;;;;;;;;4974252;28;19921;-82
2022/06/20 03:06:55;;;;;;;;;;;;;;;;;;4960173;28;19925;-81
2022/06/20 03:09:39;;;;;;;;;;;;;;;;;;4974288;28;19937;-81
2022/06/20 03:12:23;;;;;;;;;;;;;;;;;;4959311;28;20008;-81
2022/06/20 03:15:07;;;;;;;;;;;;;;;;;;4958505;28;20073;-81
2022/06/20 03:17:51;;;;;;;;;;;;;;;;;;4973845;28;20587;-82
2022/06/20 03:20:35;;;;;;;;;;;;;;;;;;4959268;28;20329;-82
2022/06/20 03:23:19;;;;;;;;;;;;;;;;;;4973900;28;20285;-82
2022/06/20 03:26:03;;;;;;;;;;;;;;;;;;4977802;28;19982;-81
2022/06/20 03:28:47;;;;;;;;;;;;;;;;;;4977849;28;19921;-81
2022/06/20 03:31:31;;;;;;;;;;;;;;;;;;4947966;28;19940;-81
2022/06/20 03:34:15;;;;;;;;;;;;;;;;;;4977563;28;20008;-80
2022/06/20 03:37:02;;;;;;;;;;;;;;;;;;4977076;28;19969;-81
2022/06/20 03:39:46;;;;;;;;;;;;;;;;;;4977729;28;20273;-81
2022/06/20 03:42:30;;;;;;;;;;;;;;;;;;4977424;28;19921;-81
2022/06/20 03:45:14;;;;;;;;;;;;;;;;;;4963008;28;19960;-82
2022/06/20 03:47:58;;;;;;;;;;;;;;;;;;4976288;28;20508;-81
2022/06/20 03:50:42;;;;;;;;;;;;;;;;;;4976765;28;20388;-81
2022/06/20 03:53:26;;;;;;;;;;;;;;;;;;4977421;28;20025;-81
2022/06/20 03:56:11;;;;;;;;;;;;;;;;;;4977223;28;19921;-81
2022/06/20 03:58:55;;;;;;;;;;;;;;;;;;4977140;28;19921;-81
2022/06/20 04:01:39;;;;;;;;;;;;;;;;;;4962252;28;19969;-81
2022/06/20 04:04:23;;;;;;;;;;;;;;;;;;4961164;28;19921;-82
2022/06/20 04:07:07;;;;;;;;;;;;;;;;;;4962168;28;20008;-81
2022/06/20 04:12:54;;;;;;;;;;;;;;;;;;4962133;28;19921;-82
2022/06/20 04:15:41;;;;;;;;;;;;;;;;;;4962500;28;19925;-82
2022/06/20 04:18:28;;;;;;;;;;;;;;;;;;4962142;28;19920;-82
2022/06/20 04:21:12;;;;;;;;;;;;;;;;;;4960603;28;19988;-83
2022/06/20 04:23:56;;;;;;;;;;;;;;;;;;4957632;29;20152;-83
2022/06/20 04:26:40;;;;;;;;;;;;;;;;;;4951066;28;19925;-84
2022/06/20 04:29:24;;;;;;;;;;;;;;;;;;4976163;28;20392;-83
2022/06/20 04:32:08;;;;;;;;;;;;;;;;;;4961360;28;20277;-83
2022/06/20 04:34:52;;;;;;;;;;;;;;;;;;4975983;28;20330;-82
2022/06/20 04:37:35;;;;;;;;;;;;;;;;;;4974419;28;19964;-83
2022/06/20 04:40:22;;;;;;;;;;;;;;;;;;4975891;28;19961;-83
2022/06/20 04:43:06;;;;;;;;;;;;;;;;;;4941882;29;19926;-83
2022/06/20 04:45:50;;;;;;;;;;;;;;;;;;4942178;29;19926;-83
2022/06/20 04:48:34;;;;;;;;;;;;;;;;;;4956601;29;20001;-83
2022/06/20 04:51:18;;;;;;;;;;;;;;;;;;4956530;28;20388;-83
2022/06/20 04:54:02;;;;;;;;;;;;;;;;;;4933869;28;20436;-83
2022/06/20 04:56:49;;;;;;;;;;;;;;;;;;4977510;28;20001;-84
2022/06/20 04:59:33;;;;;;;;;;;;;;;;;;4947435;28;19969;-82
2022/06/20 05:02:17;;;;;;;;;;;;;;;;;;4960912;28;19937;-83
2022/06/20 05:05:04;;;;;;;;;;;;;;;;;;4975835;28;19937;-83
2022/06/20 05:07:48;;;;;;;;;;;;;;;;;;4947201;28;19929;-83
2022/06/20 05:10:32;;;;;;;;;;;;;;;;;;4959905;28;19921;-84
2022/06/20 05:13:16;;;;;;;;;;;;;;;;;;4975241;28;19941;-85
2022/06/20 05:16:00;;;;;;;;;;;;;;;;;;4961294;28;20412;-83
2022/06/20 05:18:44;;;;;;;;;;;;;;;;;;4961329;28;19973;-83
2022/06/20 05:21:28;;;;;;;;;;;;;;;;;;4976162;28;20044;-84
2022/06/20 05:24:12;;;;;;;;;;;;;;;;;;4961391;28;19921;-84
2022/06/20 05:26:56;;;;;;;;;;;;;;;;;;4975167;28;19925;-84
2022/06/20 05:29:40;;;;;;;;;;;;;;;;;;4958745;28;20056;-83
2022/06/20 05:32:24;;;;;;;;;;;;;;;;;;4975073;28;19922;-82
2022/06/20 05:35:08;;;;;;;;;;;;;;;;;;4974726;28;19922;-83
2022/06/20 05:37:33;;;;;;;;;;;;;;;;;;4957376;28;19914;-82
2022/06/20 05:39:59;;;;;;;;;;;;;;;;;;4974797;28;20400;-83
2022/06/20 05:42:24;;;;;;;;;;;;;;;;;;4941725;28;19983;-83
2022/06/20 05:44:49;;;;;;;;;;;;;;;;;;4972991;28;19926;-82
2022/06/20 05:47:15;;;;;;;;;;;;;;;;;;4973589;28;20277;-81
2022/06/20 05:49:41;;;;;;;;;;;;;;;;;;4974677;28;19914;-83
2022/06/20 05:52:06;;;;;;;;;;;;;;;;;;4956946;28;19914;-81
2022/06/20 05:54:32;;;;;;;;;;;;;;;;;;4951495;23;20313;-83
2022/06/20 05:57:00;;;;;;;;;;;;;;;;;;4926376;28;20017;-83
2022/06/20 05:59:25;;;;;;;;;;;;;;;;;;4942203;28;19945;-82
2022/06/20 06:01:51;;;;;;;;;;;;;;;;;;4937807;29;19953;-81
2022/06/20 06:04:17;;;;;;;;;;;;;;;;;;4958116;28;20337;-82
2022/06/20 06:06:42;;;;;;;;;;;;;;;;;;4957274;28;20360;-82
2022/06/20 06:09:07;;;;;;;;;;;;;;;;;;4941432;28;19914;-82
2022/06/20 06:11:33;;;;;;;;;;;;;;;;;;4975127;28;19910;-84
2022/06/20 06:13:58;;;;;;;;;;;;;;;;;;4975404;28;19921;-83
2022/06/20 06:19:08;;;;;;;;;;;;;;;;;;4975324;28;19914;-81
2022/06/20 06:21:33;;;;;;;;;;;;;;;;;;4957387;28;19921;-82
2022/06/20 06:23:59;;;;;;;;;;;;;;;;;;4941412;28;20296;-81
2022/06/20 06:26:24;;;;;;;;;;;;;;;;;;4941704;28;19918;-81
2022/06/20 06:28:50;;;;;;;;;;;;;;;;;;4957780;28;20095;-81
2022/06/20 06:31:15;;;;;;;;;;;;;;;;;;4941796;28;19942;-81
2022/06/20 06:33:41;;;;;;;;;;;;;;;;;;4973896;28;19921;-83
2022/06/20 06:36:06;;;;;;;;;;;;;;;;;;4958126;28;20437;-82
2022/06/20 06:38:32;;;;;;;;;;;;;;;;;;4940995;28;20381;-83
2022/06/20 06:40:57;;;;;;;;;;;;;;;;;;4956728;28;20341;-81
2022/06/20 06:43:23;;;;;;;;;;;;;;;;;;4925318;28;19921;-81
2022/06/20 06:45:58;;;;;;;;;;;;;;;;;;4925259;28;19914;-82
2022/06/20 06:48:23;;;;;;;;;;;;;;;;;;4956776;28;19921;-81
2022/06/20 06:50:48;;;;;;;;;;;;;;;;;;4956077;28;20254;-82
2022/06/20 06:53:14;;;;;;;;;;;;;;;;;;4938711;29;20017;-82
2022/06/20 06:55:39;;;;;;;;;;;;;;;;;;4955021;29;20072;-82
2022/06/20 06:58:05;;;;;;;;;;;;;;;;;;4938142;29;19918;-81
2022/06/20 07:00:30;;;;;;;;;;;;;;;;;;4954557;29;19960;-81
2022/06/20 07:02:56;;;;;;;;;;;;;;;;;;4955296;29;20446;-83
2022/06/20 07:05:24;;;;;;;;;;;;;;;;;;4954776;28;19921;-82
2022/06/20 07:07:49;;;;;;;;;;;;;;;;;;4938895;29;19918;-81
2022/06/20 07:10:14;;;;;;;;;;;;;;;;;;4958609;28;19921;-80
2022/06/20 07:12:40;;;;;;;;;;;;;;;;;;4974714;28;19972;-80
2022/06/20 07:15:05;;;;;;;;;;;;;;;;;;4941741;28;19918;-82
2022/06/20 07:17:31;;;;;;;;;;;;;;;;;;4958060;28;19915;-83
2022/06/20 07:19:58;;;;;;;;;;;;;;;;;;4958677;28;20373;-82
2022/06/20 07:22:23;;;;;;;;;;;;;;;;;;4959689;28;19921;-82
2022/06/20 07:24:49;;;;;;;;;;;;;;;;;;4957463;28;20265;-83
2022/06/20 07:27:18;;;;;;;;;;;;;;;;;;4957737;28;19969;-80
2022/06/20 07:29:44;;;;;;;;;;;;;;;;;;4962035;28;19921;-80
2022/06/20 07:32:10;;;;;;;;;;;;;;;;;;4956171;28;20021;-81
2022/06/20 07:34:44;;;;;;;;;;;;;;;;;;4941177;28;20197;-82
2022/06/20 07:37:10;;;;;;;;;;;;;;;;;;4957121;28;20377;-82
2022/06/20 07:39:39;;;;;;;;;;;;;;;;;;4927253;28;19925;-82
2022/06/20 07:42:04;;;;;;;;;;;;;;;;;;4955353;28;19913;-81
2022/06/20 07:44:30;;;;;;;;;;;;;;;;;;4936722;29;20368;-80
2022/06/20 07:46:58;;;;;;;;;;;;;;;;;;4964436;28;20013;-81
2022/06/20 07:49:23;;;;;;;;;;;;;;;;;;4944135;28;20305;-80
2022/06/20 07:51:49;;;;;;;;;;;;;;;;;;4942148;28;20006;-81
2022/06/20 07:54:14;;;;;;;;;;;;;;;;;;4947588;28;19918;-81
2022/06/20 07:56:39;;;;;;;;;;;;;;;;;;4952225;28;19921;-83
2022/06/20 07:59:05;;;;;;;;;;;;;;;;;;4972059;28;19993;-83
2022/06/20 08:01:30;;;;;;;;;;;;;;;;;;4972564;28;19910;-84
2022/06/20 08:03:55;;;;;;;;;;;;;;;;;;4958144;28;19910;-84
2022/06/20 08:06:21;;;;;;;;;;;;;;;;;;4974095;28;19926;-83
2022/06/20 08:08:46;;;;;;;;;;;;;;;;;;4957440;28;19918;-80
2022/06/20 08:11:11;;;;;;;;;;;;;;;;;;4976589;28;19925;-83
2022/06/20 08:13:37;;;;;;;;;;;;;;;;;;4957689;28;19914;-84
2022/06/20 08:16:02;;;;;;;;;;;;;;;;;;4963763;29;19915;-81
2022/06/20 08:18:31;;;;;;;;;;;;;;;;;;4951032;29;19914;-84
2022/06/20 08:20:59;;;;;;;;;;;;;;;;;;4933536;29;19914;-85
2022/06/20 08:23:24;;;;;;;;;;;;;;;;;;4966049;29;19921;-82
2022/06/20 08:25:50;;;;;;;;;;;;;;;;;;4951289;29;19915;-86
2022/06/20 08:28:18;;;;;;;;;;;;;;;;;;4964008;28;19934;-82
2022/06/20 08:30:44;;;;;;;;;;;;;;;;;;4962658;28;19915;-84
2022/06/20 08:33:12;;;;;;;;;;;;;;;;;;4981163;28;19914;-87
2022/06/20 08:35:39;;;;;;;;;;;;;;;;;;4962643;28;19937;-85
2022/06/20 08:38:05;;;;;;;;;;;;;;;;;;4935736;28;19914;-87
2022/06/20 08:40:30;;;;;;;;;;;;;;;;;;4951034;28;19986;-87
2022/06/20 08:43:05;;;;;;;;;;;;;;;;;;4960103;28;19898;-84
2022/06/20 08:45:32;;;;;;;;;;;;;;;;;;4952986;28;19921;-84
2022/06/20 08:47:57;;;;;;;;;;;;;;;;;;4969450;28;20021;-84
2022/06/20 08:50:25;;;;;;;;;;;;;;;;;;4951155;28;19988;-87
2022/06/20 08:52:50;;;;;;;;;;;;;;;;;;4939305;28;19925;-86
2022/06/20 08:55:15;;;;;;;;;;;;;;;;;;4969015;28;19922;-85
2022/06/20 08:57:41;;;;;;;;;;;;;;;;;;4974608;28;19921;-86
2022/06/20 09:00:06;;;;;;;;;;;;;;;;;;4992239;28;19981;-89
2022/06/20 09:02:32;;;;;;;;;;;;;;;;;;4951699;28;19965;-86
2022/06/20 09:04:57;;;;;;;;;;;;;;;;;;4956400;28;19921;-85
2022/06/20 09:07:22;;;;;;;;;;;;;;;;;;4959984;28;19918;-85
2022/06/20 09:09:48;;;;;;;;;;;;;;;;;;4947598;28;19941;-85
2022/06/20 09:12:13;;;;;;;;;;;;;;;;;;4992946;28;19914;-88
2022/06/20 09:14:39;;;;;;;;;;;;;;;;;;4952116;28;19937;-85
2022/06/20 09:17:04;;;;;;;;;;;;;;;;;;4940565;29;19921;-86
2022/06/20 09:19:30;;;;;;;;;;;;;;;;;;4940883;29;19914;-85
2022/06/20 09:21:56;;;;;;;;;;;;;;;;;;4933466;28;19914;-84
2022/06/20 09:24:21;;;;;;;;;;;;;;;;;;4951971;29;19915;-87
2022/06/20 09:26:48;;;;;;;;;;;;;;;;;;4951913;29;19918;-88
2022/06/20 09:29:14;;;;;;;;;;;;;;;;;;4967904;28;19914;-84
2022/06/20 09:31:40;;;;;;;;;;;;;;;;;;4926455;28;19960;-82
2022/06/20 09:34:06;;;;;;;;;;;;;;;;;;4944494;28;19914;-87
2022/06/20 09:36:44;;;;;;;;;;;;;;;;;;4968930;28;19915;-86
2022/06/20 09:39:10;;;;;;;;;;;;;;;;;;4968627;28;19973;-85
2022/06/20 09:41:36;;;;;;;;;;;;;;;;;;4961667;28;19914;-86
2022/06/20 09:44:01;;;;;;;;;;;;;;;;;;4942435;29;19914;-77
2022/06/20 09:46:27;;;;;;;;;;;;;;;;;;4953921;29;19923;-76
2022/06/20 09:48:52;;;;;;;;;;;;;;;;;;4955204;29;20362;-79
2022/06/20 09:51:18;;;;;;;;;;;;;;;;;;4955150;29;19915;-79
2022/06/20 09:53:43;;;;;;;;;;;;;;;;;;4962502;28;19914;-81
2022/06/20 09:56:08;;;;;;;;;;;;;;;;;;4941700;28;20350;-80
2022/06/20 09:58:34;;;;;;;;;;;;;;;;;;4957739;28;20378;-79
2022/06/20 10:00:59;;;;;;;;;;;;;;;;;;4954291;29;19921;-81
2022/06/20 10:03:24;;;;;;;;;;;;;;;;;;4939338;29;20000;-80
2022/06/20 10:05:50;;;;;;;;;;;;;;;;;;4937825;29;19914;-79
2022/06/20 10:08:15;;;;;;;;;;;;;;;;;;4954485;28;20001;-77
2022/06/20 10:10:40;;;;;;;;;;;;;;;;;;4955880;28;19922;-77
2022/06/20 10:13:06;;;;;;;;;;;;;;;;;;4973758;28;19918;-78
2022/06/20 10:15:31;;;;;;;;;;;;;;;;;;4974055;28;19953;-79
2022/06/20 10:17:57;;;;;;;;;;;;;;;;;;4974128;28;19918;-78
2022/06/20 10:20:22;;;;;;;;;;;;;;;;;;4956404;28;19918;-78
2022/06/20 10:22:48;;;;;;;;;;;;;;;;;;4924750;28;19910;-78
2022/06/20 10:25:16;;;;;;;;;;;;;;;;;;4955459;28;20028;-79
2022/06/20 10:27:41;;;;;;;;;;;;;;;;;;4973406;28;19973;-78
2022/06/20 10:30:06;;;;;;;;;;;;;;;;;;4955694;28;19918;-79
2022/06/20 10:32:32;;;;;;;;;;;;;;;;;;4956156;28;20400;-79
2022/06/20 10:34:57;;;;;;;;;;;;;;;;;;4956309;28;20434;-77
2022/06/20 10:37:23;;;;;;;;;;;;;;;;;;4974654;28;19926;-79
2022/06/20 10:39:48;;;;;;;;;;;;;;;;;;4940841;28;19914;-78
2022/06/20 10:42:13;;;;;;;;;;;;;;;;;;4939470;28;19937;-77
2022/06/20 10:44:39;;;;;;;;;;;;;;;;;;4973081;28;19921;-78
2022/06/20 10:47:04;;;;;;;;;;;;;;;;;;4956101;28;19917;-79
2022/06/20 10:49:30;;;;;;;;;;;;;;;;;;4956583;28;19914;-79
2022/06/20 10:51:56;;;;;;;;;;;;;;;;;;4956167;28;19953;-78
2022/06/20 10:54:21;;;;;;;;;;;;;;;;;;4955945;28;19924;-77
2022/06/20 10:56:46;;;;;;;;;;;;;;;;;;4969379;28;19914;-77
2022/06/20 10:59:15;;;;;;;;;;;;;;;;;;4940271;28;19921;-77
2022/06/20 11:01:43;;;;;;;;;;;;;;;;;;4956594;28;20065;-78
2022/06/20 11:04:09;;;;;;;;;;;;;;;;;;4955589;28;19914;-78
2022/06/20 11:06:34;;;;;;;;;;;;;;;;;;4972839;28;19918;-79
2022/06/20 11:08:59;;;;;;;;;;;;;;;;;;4973436;28;19914;-76
2022/06/20 11:11:25;;;;;;;;;;;;;;;;;;4979135;28;20412;-78
2022/06/20 11:13:50;;;;;;;;;;;;;;;;;;4951751;28;20369;-75
2022/06/20 11:16:16;;;;;;;;;;;;;;;;;;4955481;28;20429;-77
2022/06/20 11:18:41;;;;;;;;;;;;;;;;;;4972580;28;19921;-77
2022/06/20 11:21:06;;;;;;;;;;;;;;;;;;4956317;28;20392;-77
2022/06/20 11:23:32;;;;;;;;;;;;;;;;;;4955931;28;20289;-78
2022/06/20 11:26:01;;;;;;;;;;;;;;;;;;4940876;28;19921;-79
2022/06/20 11:28:26;;;;;;;;;;;;;;;;;;4923688;29;19919;-77
2022/06/20 11:30:52;;;;;;;;;;;;;;;;;;4948197;28;19921;-78
2022/06/20 11:33:17;;;;;;;;;;;;;;;;;;4968113;28;19914;-76
2022/06/20 11:35:43;;;;;;;;;;;;;;;;;;4969844;28;20009;-79
2022/06/20 11:38:11;;;;;;;;;;;;;;;;;;4936663;29;20094;-79
2022/06/20 11:40:36;;;;;;;;;;;;;;;;;;4956048;28;19922;-78
2022/06/20 11:43:04;;;;;;;;;;;;;;;;;;4972663;28;19937;-80
2022/06/20 11:45:30;;;;;;;;;;;;;;;;;;4969754;28;19915;-78
2022/06/20 11:47:58;;;;;;;;;;;;;;;;;;4974947;28;19933;-79
2022/06/20 11:50:24;;;;;;;;;;;;;;;;;;4943967;28;19914;-78
2022/06/20 11:52:49;;;;;;;;;;;;;;;;;;4955928;29;19938;-78
2022/06/20 11:55:15;;;;;;;;;;;;;;;;;;4980792;23;19988;-83
2022/06/20 11:57:40;;;;;;;;;;;;;;;;;;5017887;28;20364;-83
2022/06/20 12:00:05;;;;;;;;;;;;;;;;;;5013359;28;19931;-80
2022/06/20 12:02:37;;;;;;;;;;;;;;;;;;5002528;28;19914;-83
2022/06/20 12:05:03;;;;;;;;;;;;;;;;;;5011610;28;19920;-82
2022/06/20 12:07:28;;;;;;;;;;;;;;;;;;5012660;28;20287;-82
2022/06/20 12:09:54;;;;;;;;;;;;;;;;;;4995614;28;20295;-81
2022/06/20 12:12:19;;;;;;;;;;;;;;;;;;4997288;28;20000;-82
2022/06/20 12:14:45;;;;;;;;;;;;;;;;;;4973636;28;19913;-83
2022/06/20 12:17:10;;;;;;;;;;;;;;;;;;4997761;28;19910;-81
2022/06/20 12:25:03;;;;;;;;;;;;;;;;;;4997738;28;19913;-83
2022/06/20 12:27:29;;;;;;;;;;;;;;;;;;5015336;28;19964;-83
2022/06/20 12:29:54;;;;;;;;;;;;;;;;;;5015656;28;19920;-82
2022/06/20 12:32:20;;;;;;;;;;;;;;;;;;5011013;28;19920;-83
2022/06/20 12:34:45;;;;;;;;;;;;;;;;;;4964699;28;19916;-82
2022/06/20 12:37:11;;;;;;;;;;;;;;;;;;5015412;28;19917;-83
2022/06/20 12:39:36;;;;;;;;;;;;;;;;;;4997544;28;19975;-84
2022/06/20 12:42:02;;;;;;;;;;;;;;;;;;4998800;28;19913;-83
2022/06/20 12:44:29;;;;;;;;;;;;;;;;;;4997541;28;20004;-85
2022/06/20 12:46:57;;;;;;;;;;;;;;;;;;4997829;28;19979;-84
2022/06/20 12:49:23;;;;;;;;;;;;;;;;;;4966234;28;19953;-78
2022/06/20 12:51:48;;;;;;;;;;;;;;;;;;4995637;28;20094;-86
2022/06/20 12:54:14;;;;;;;;;;;;;;;;;;4981839;28;19924;-85
2022/06/20 12:56:39;;;;;;;;;;;;;;;;;;4999510;28;20438;-86
2022/06/20 12:59:05;;;;;;;;;;;;;;;;;;4967680;28;20207;-86
2022/06/20 13:01:30;;;;;;;;;;;;;;;;;;5000037;28;19917;-84
2022/06/20 13:03:56;;;;;;;;;;;;;;;;;;4984253;28;19985;-84
2022/06/20 13:06:21;;;;;;;;;;;;;;;;;;5001531;28;19983;-84
2022/06/20 13:08:47;;;;;;;;;;;;;;;;;;5002145;28;19920;-83
2022/06/20 13:11:12;;;;;;;;;;;;;;;;;;5027254;28;19914;-83
2022/06/20 13:13:37;;;;;;;;;;;;;;;;;;5025892;28;20048;-86
2022/06/20 13:16:05;;;;;;;;;;;;;;;;;;5013338;28;19988;-86
2022/06/20 13:18:31;;;;;;;;;;;;;;;;;;4997816;28;19909;-83
2022/06/20 13:20:56;;;;;;;;;;;;;;;;;;4980364;28;19924;-85
2022/06/20 13:23:21;;;;;;;;;;;;;;;;;;4999043;28;20016;-80
2022/06/20 13:25:47;;;;;;;;;;;;;;;;;;4999795;28;19913;-81
2022/06/20 13:28:12;;;;;;;;;;;;;;;;;;5002185;28;20324;-81
2022/06/20 13:30:37;;;;;;;;;;;;;;;;;;4988041;28;19917;-83
2022/06/20 13:33:03;;;;;;;;;;;;;;;;;;5017864;28;19921;-81
2022/06/20 13:35:28;;;;;;;;;;;;;;;;;;4983790;28;19913;-83
2022/06/20 13:37:54;;;;;;;;;;;;;;;;;;5010655;28;19999;-83
2022/06/20 13:40:19;;;;;;;;;;;;;;;;;;4976796;28;19914;-83
2022/06/20 13:42:45;;;;;;;;;;;;;;;;;;5010121;28;19914;-82
2022/06/20 13:45:10;;;;;;;;;;;;;;;;;;5009093;28;19956;-81
2022/06/20 13:47:36;;;;;;;;;;;;;;;;;;5005052;28;19924;-80
2022/06/20 13:50:01;;;;;;;;;;;;;;;;;;5017540;28;19917;-82
2022/06/20 13:52:26;;;;;;;;;;;;;;;;;;5000362;28;19968;-83
2022/06/20 13:54:52;;;;;;;;;;;;;;;;;;4950339;28;20298;-84
2022/06/20 13:57:18;;;;;;;;;;;;;;;;;;4979359;28;21172;-82
2022/06/20 13:59:47;;;;;;;;;;;;;;;;;;4992540;28;19913;-83
2022/06/20 14:02:12;;;;;;;;;;;;;;;;;;5014375;28;20004;-82
2022/06/20 14:04:38;;;;;;;;;;;;;;;;;;4978605;28;19913;-84
2022/06/20 14:07:03;;;;;;;;;;;;;;;;;;4980552;28;19979;-82
2022/06/20 14:09:28;;;;;;;;;;;;;;;;;;5009840;28;19913;-81
2022/06/20 14:11:54;;;;;;;;;;;;;;;;;;5020027;28;20293;-85
2022/06/20 14:14:21;;;;;;;;;;;;;;;;;;5010132;28;19983;-83
2022/06/20 14:16:46;;;;;;;;;;;;;;;;;;4999809;28;19914;-86
2022/06/20 14:19:11;;;;;;;;;;;;;;;;;;4977741;28;19920;-86
2022/06/20 14:21:37;;;;;;;;;;;;;;;;;;4979819;28;19920;-84
2022/06/20 14:24:02;;;;;;;;;;;;;;;;;;4984773;28;19935;-87
2022/06/20 14:26:32;;;;;;;;;;;;;;;;;;4985966;28;19941;-85
2022/06/20 14:28:59;;;;;;;;;;;;;;;;;;5011473;28;19913;-85
2022/06/20 14:31:25;;;;;;;;;;;;;;;;;;4995274;28;19909;-84
2022/06/20 14:33:51;;;;;;;;;;;;;;;;;;5012183;28;20015;-86
2022/06/20 14:36:16;;;;;;;;;;;;;;;;;;5012958;28;20380;-84
2022/06/20 14:38:42;;;;;;;;;;;;;;;;;;4995419;28;19921;-83
2022/06/20 14:41:39;;;;;;;;;;;;;;;;;;5002127;28;19918;-84
2022/06/20 14:43:52;;;;;;;;;;;;;;;;;;4995049;28;19914;-88
2022/06/20 14:46:18;;;;;;;;;;;;;;;;;;4995438;28;19936;-84
2022/06/20 14:48:43;;;;;;;;;;;;;;;;;;5012825;28;20308;-83
2022/06/20 14:51:09;;;;;;;;;;;;;;;;;;4995050;28;20345;-87
2022/06/20 14:53:34;;;;;;;;;;;;;;;;;;4994904;28;19976;-85
2022/06/20 14:56:00;;;;;;;;;;;;;;;;;;4995229;28;19972;-87
2022/06/20 14:58:27;;;;;;;;;;;;;;;;;;4995011;28;19920;-86
2022/06/20 15:00:53;;;;;;;;;;;;;;;;;;4995287;28;19921;-89
2022/06/20 15:03:18;;;;;;;;;;;;;;;;;;4998201;28;19913;-84
2022/06/20 15:05:44;;;;;;;;;;;;;;;;;;4993739;28;19914;-83
2022/06/20 15:08:09;;;;;;;;;;;;;;;;;;4994352;28;20403;-85
2022/06/20 15:10:35;;;;;;;;;;;;;;;;;;5005588;28;19965;-84
2022/06/20 15:13:01;;;;;;;;;;;;;;;;;;4986187;28;20001;-86
2022/06/20 15:15:26;;;;;;;;;;;;;;;;;;4994439;28;20038;-86
2022/06/20 15:17:52;;;;;;;;;;;;;;;;;;4994663;28;19920;-87
2022/06/20 15:20:17;;;;;;;;;;;;;;;;;;5015170;28;19910;-85
2022/06/20 15:22:43;;;;;;;;;;;;;;;;;;4966823;28;19918;-84
2022/06/20 15:25:08;;;;;;;;;;;;;;;;;;4998355;28;19919;-87
2022/06/20 15:27:33;;;;;;;;;;;;;;;;;;4998917;28;19917;-86
2022/06/20 15:29:59;;;;;;;;;;;;;;;;;;4995221;28;19959;-86
2022/06/20 15:32:24;;;;;;;;;;;;;;;;;;5031056;28;20352;-88
2022/06/20 15:34:50;;;;;;;;;;;;;;;;;;5015725;28;19917;-85
2022/06/20 15:37:16;;;;;;;;;;;;;;;;;;5015908;28;19968;-85
2022/06/20 15:39:41;;;;;;;;;;;;;;;;;;4997896;28;20327;-86
2022/06/20 15:42:40;;;;;;;;;;;;;;;;;;5016273;28;20020;-84
2022/06/20 15:44:59;;;;;;;;;;;;;;;;;;5012474;28;19921;-86
2022/06/20 15:47:24;;;;;;;;;;;;;;;;;;4979391;28;20400;-86
2022/06/20 15:49:50;;;;;;;;;;;;;;;;;;4989669;28;19929;-85
2022/06/20 15:52:15;;;;;;;;;;;;;;;;;;4981685;28;20292;-85
2022/06/20 15:54:41;;;;;;;;;;;;;;;;;;4981596;28;19910;-87
2022/06/20 15:57:06;;;;;;;;;;;;;;;;;;4982294;28;19917;-88
2022/06/20 15:59:32;;;;;;;;;;;;;;;;;;4998254;28;19913;-86
2022/06/20 16:01:57;;;;;;;;;;;;;;;;;;4997667;28;19920;-86
2022/06/20 16:04:22;;;;;;;;;;;;;;;;;;4996189;28;19975;-86
2022/06/20 16:06:48;;;;;;;;;;;;;;;;;;5014504;28;19964;-85
2022/06/20 16:09:13;;;;;;;;;;;;;;;;;;4998447;28;19914;-85
2022/06/20 16:11:39;;;;;;;;;;;;;;;;;;4997572;28;19937;-85
2022/06/20 16:14:04;;;;;;;;;;;;;;;;;;5015500;28;19975;-83
2022/06/20 16:16:30;;;;;;;;;;;;;;;;;;5015326;28;19914;-84
2022/06/20 16:18:56;;;;;;;;;;;;;;;;;;4981419;28;19909;-81
2022/06/20 16:21:21;;;;;;;;;;;;;;;;;;4995740;28;19926;-83
2022/06/20 16:23:47;;;;;;;;;;;;;;;;;;5014777;28;19906;-82
2022/06/20 16:26:12;;;;;;;;;;;;;;;;;;5014426;28;20407;-82
2022/06/20 16:28:37;;;;;;;;;;;;;;;;;;4997423;28;20296;-83
2022/06/20 16:31:06;;;;;;;;;;;;;;;;;;4979923;28;19945;-83
2022/06/20 16:33:32;;;;;;;;;;;;;;;;;;5014774;28;19964;-82
2022/06/20 16:35:57;;;;;;;;;;;;;;;;;;5014800;28;19914;-80
2022/06/20 16:38:23;;;;;;;;;;;;;;;;;;5012656;28;19921;-85
2022/06/20 16:40:48;;;;;;;;;;;;;;;;;;5014850;28;19913;-84
2022/06/20 16:43:14;;;;;;;;;;;;;;;;;;4997057;28;20079;-84
2022/06/20 16:45:40;;;;;;;;;;;;;;;;;;5010432;28;20418;-82
2022/06/20 16:48:05;;;;;;;;;;;;;;;;;;5007096;28;20029;-82
2022/06/20 16:50:30;;;;;;;;;;;;;;;;;;5015604;28;19918;-87
2022/06/20 16:52:56;;;;;;;;;;;;;;;;;;4996551;28;20430;-83
2022/06/20 16:55:24;;;;;;;;;;;;;;;;;;4997074;28;20304;-85
2022/06/20 16:57:49;;;;;;;;;;;;;;;;;;5010354;28;19926;-85
2022/06/20 17:00:14;;;;;;;;;;;;;;;;;;4995872;28;19918;-87
2022/06/20 17:02:40;;;;;;;;;;;;;;;;;;5013550;28;20004;-81
2022/06/20 17:05:05;;;;;;;;;;;;;;;;;;5007060;28;19918;-84
2022/06/20 17:07:33;;;;;;;;;;;;;;;;;;4996330;28;19921;-82
2022/06/20 17:09:58;;;;;;;;;;;;;;;;;;5013907;28;20241;-81
2022/06/20 17:12:23;;;;;;;;;;;;;;;;;;4963327;28;19914;-81
2022/06/20 17:14:49;;;;;;;;;;;;;;;;;;4979113;28;20176;-84
2022/06/20 17:17:14;;;;;;;;;;;;;;;;;;4992496;28;19913;-83
2022/06/20 17:19:40;;;;;;;;;;;;;;;;;;4977421;28;19921;-83
2022/06/20 17:22:05;;;;;;;;;;;;;;;;;;5011640;28;19913;-87
2022/06/20 17:24:30;;;;;;;;;;;;;;;;;;4964494;28;19913;-87